Streetman, Texas
Current Conditions -  °F | °C
As of 3:53 AM on Saturday 25 Oct 2014 (Local Time) from KCRS Reporting Station
Clear Clear  
Wind Chill: 63°   Ceiling: Unl
Heat Index: 63°   Visibility: 10mi
Dew Point: 58°   Wind: 7mph
Humidity: 84%   Direction: 190°S
Pressure: 30.13"   Gusts: NA
Location:  31.88°N, 96.32°W
Report Text: KCRS 250853Z AUTO 19006KT 10SM CLR 17/14 A3013 RMK AO2 SLP199 T01720144 53001
Loading
Personal Weather Stations






























Interactive Weather Map
Tropical Storm Tracking
New forecast layout! Learn more

10-Day Weather Forecast

Advertisements
Track Severe Weather on mobile